createdAt,value
2017-09-07T00:01:16.349Z,59.30
2017-09-07T00:03:43.893Z,59.30
2017-09-07T00:06:11.389Z,59.30
2017-09-07T00:08:38.948Z,59.30
2017-09-07T00:11:06.466Z,59.20
2017-09-07T00:13:34.013Z,59.20
2017-09-07T00:16:01.620Z,59.20
2017-09-07T00:18:29.153Z,59.20
2017-09-07T00:20:56.661Z,59.20
2017-09-07T00:23:24.202Z,59.20
2017-09-07T00:25:51.781Z,59.30
2017-09-07T00:28:19.332Z,59.20
2017-09-07T00:30:46.879Z,59.20
2017-09-07T00:33:14.646Z,59.20
2017-09-07T00:35:42.153Z,59.10
2017-09-07T00:38:09.689Z,59.20
2017-09-07T00:40:37.237Z,59.20
2017-09-07T00:43:04.761Z,59.20
2017-09-07T00:45:32.317Z,59.20
2017-09-07T00:47:59.816Z,59.10
2017-09-07T00:50:27.325Z,59.20
2017-09-07T00:52:54.889Z,59.20
2017-09-07T00:55:22.420Z,59.20
2017-09-07T00:57:49.933Z,59.20
2017-09-07T01:00:17.464Z,59.20
2017-09-07T01:02:45.114Z,59.20
2017-09-07T01:05:12.861Z,59.20
2017-09-07T01:07:40.376Z,59.20
2017-09-07T01:10:07.921Z,59.20
2017-09-07T01:12:35.422Z,59.20
2017-09-07T01:15:02.968Z,59.20
2017-09-07T01:17:30.525Z,59.20
2017-09-07T01:19:58.042Z,59.20
2017-09-07T01:22:25.558Z,59.20
2017-09-07T01:24:53.109Z,59.20
2017-09-07T01:27:20.624Z,59.20
2017-09-07T01:29:48.131Z,59.30
2017-09-07T01:32:15.693Z,59.20
2017-09-07T01:34:43.198Z,59.10
2017-09-07T01:37:10.732Z,59.10
2017-09-07T01:39:38.499Z,59.20
2017-09-07T01:42:06.032Z,59.20
2017-09-07T01:44:33.819Z,59.20
2017-09-07T01:47:01.320Z,59.20
2017-09-07T01:49:28.852Z,59.30
2017-09-07T01:51:56.384Z,59.20
2017-09-07T01:54:23.935Z,59.20
2017-09-07T01:56:51.887Z,59.20
2017-09-07T01:59:19.420Z,59.20
2017-09-07T02:01:46.929Z,59.20
2017-09-07T02:04:14.437Z,59.20
2017-09-07T02:06:41.977Z,59.20
2017-09-07T02:09:10.258Z,59.30
2017-09-07T02:11:37.783Z,59.20
2017-09-07T02:14:05.294Z,59.20
2017-09-07T02:16:33.138Z,59.20
2017-09-07T02:19:00.963Z,59.30
2017-09-07T02:21:28.469Z,59.20
2017-09-07T02:23:56.002Z,59.20
2017-09-07T02:26:23.537Z,59.20
2017-09-07T02:28:51.100Z,59.20
2017-09-07T02:31:18.626Z,59.30
2017-09-07T02:33:46.441Z,59.20
2017-09-07T02:36:13.965Z,59.30
2017-09-07T02:38:41.983Z,59.20
2017-09-07T02:41:09.529Z,59.20
2017-09-07T02:43:37.255Z,59.30
2017-09-07T02:46:04.759Z,59.20
2017-09-07T02:48:32.299Z,59.20
2017-09-07T02:51:00.517Z,59.20
2017-09-07T02:53:28.054Z,59.30
2017-09-07T02:55:55.562Z,59.30
2017-09-07T02:58:23.081Z,60.00
2017-09-07T03:00:50.592Z,59.20
2017-09-07T03:03:18.539Z,59.30
2017-09-07T03:05:46.375Z,59.30
2017-09-07T03:08:13.876Z,59.30
2017-09-07T03:10:41.598Z,59.20
2017-09-07T03:15:43.859Z,59.30
2017-09-07T03:18:11.391Z,60.00
2017-09-07T03:20:38.887Z,59.30
2017-09-07T03:23:06.393Z,59.20
2017-09-07T03:25:33.953Z,59.20
2017-09-07T03:28:01.452Z,59.20
2017-09-07T03:30:29.009Z,59.20
2017-09-07T03:32:56.517Z,59.20
2017-09-07T03:35:24.020Z,59.20
2017-09-07T03:37:52.240Z,59.30
2017-09-07T03:40:19.748Z,60.00
2017-09-07T03:42:47.300Z,59.30
2017-09-07T03:45:14.806Z,59.30
2017-09-07T03:47:42.551Z,59.30
2017-09-07T03:50:10.060Z,59.20
2017-09-07T03:52:37.574Z,59.30
2017-09-07T03:55:05.186Z,59.30
2017-09-07T03:57:32.803Z,59.20
2017-09-07T04:00:00.452Z,59.20
2017-09-07T04:02:27.953Z,59.20
2017-09-07T04:04:55.515Z,59.20
2017-09-07T04:07:23.052Z,59.20
2017-09-07T04:09:50.605Z,59.20
2017-09-07T04:12:18.157Z,59.20
2017-09-07T04:14:45.959Z,59.20
2017-09-07T04:17:13.460Z,59.20
2017-09-07T04:19:40.959Z,59.20
2017-09-07T04:22:08.766Z,59.20
2017-09-07T04:24:36.265Z,59.10
2017-09-07T04:27:03.792Z,59.10
2017-09-07T04:29:31.663Z,59.10
2017-09-07T04:31:59.515Z,59.10
2017-09-07T04:34:27.118Z,59.10
2017-09-07T04:36:54.667Z,59.10
2017-09-07T04:39:22.168Z,59.10
2017-09-07T04:41:49.696Z,59.00
2017-09-07T04:44:17.216Z,59.10
2017-09-07T04:46:44.745Z,59.00
2017-09-07T04:49:12.283Z,59.10
2017-09-07T04:51:39.861Z,59.00
2017-09-07T04:54:07.369Z,59.00
2017-09-07T04:56:35.668Z,58.40
2017-09-07T04:59:03.223Z,59.00
2017-09-07T05:01:30.736Z,59.00
2017-09-07T05:03:58.271Z,59.00
2017-09-07T05:06:25.785Z,58.90
2017-09-07T05:08:53.657Z,59.00
2017-09-07T05:11:21.272Z,59.00
2017-09-07T05:13:48.784Z,59.00
2017-09-07T05:16:16.328Z,58.90
2017-09-07T05:18:43.856Z,58.90
2017-09-07T05:21:11.388Z,58.90
2017-09-07T05:23:38.917Z,58.90
2017-09-07T05:26:06.453Z,58.90
2017-09-07T05:28:33.964Z,58.90
2017-09-07T05:31:01.485Z,58.90
2017-09-07T05:33:30.282Z,58.90
2017-09-07T05:35:57.793Z,58.90
2017-09-07T05:38:25.333Z,58.90
2017-09-07T05:40:52.841Z,58.90
2017-09-07T05:43:20.401Z,58.80
2017-09-07T05:45:47.974Z,58.90
2017-09-07T05:48:15.572Z,58.90
2017-09-07T05:50:43.087Z,58.90
2017-09-07T05:53:10.605Z,58.90
2017-09-07T05:55:38.303Z,58.90
2017-09-07T05:58:05.809Z,58.90
2017-09-07T06:00:33.331Z,58.90
2017-09-07T06:03:00.868Z,58.90
2017-09-07T06:05:29.267Z,58.90
2017-09-07T06:07:56.845Z,58.90
2017-09-07T06:10:24.340Z,58.90
2017-09-07T06:12:51.845Z,58.90
2017-09-07T06:15:19.638Z,59.00
2017-09-07T06:17:47.185Z,58.90
2017-09-07T06:20:14.881Z,58.90
2017-09-07T06:22:42.436Z,58.90
2017-09-07T06:25:09.972Z,58.90
2017-09-07T06:27:37.517Z,58.90
2017-09-07T06:30:05.037Z,58.90
2017-09-07T06:32:32.560Z,58.90
2017-09-07T06:35:00.190Z,58.90
2017-09-07T06:37:27.706Z,58.80
2017-09-07T06:39:55.264Z,59.10
2017-09-07T06:42:22.780Z,59.10
2017-09-07T06:44:50.314Z,59.10
2017-09-07T06:47:17.864Z,59.10
2017-09-07T06:49:45.519Z,59.20
2017-09-07T06:57:55.347Z,59.10
2017-09-07T07:00:22.849Z,59.30
2017-09-07T07:02:50.392Z,59.10
2017-09-07T07:05:18.245Z,59.30
2017-09-07T07:07:45.755Z,59.00
2017-09-07T07:10:13.267Z,59.10
2017-09-07T07:12:40.805Z,59.20
2017-09-07T07:15:08.416Z,59.10
2017-09-07T07:17:35.968Z,59.40
2017-09-07T07:20:03.812Z,59.20
2017-09-07T07:22:31.326Z,59.00
2017-09-07T07:24:58.848Z,59.10
2017-09-07T07:27:26.374Z,59.10
2017-09-07T07:29:53.957Z,59.20
2017-09-07T07:32:21.479Z,59.10
2017-09-07T07:34:49.049Z,59.00
2017-09-07T07:37:16.811Z,59.00
2017-09-07T07:39:44.368Z,58.80
2017-09-07T07:42:12.032Z,58.80
2017-09-07T07:44:39.532Z,59.00
2017-09-07T07:47:07.061Z,58.90
2017-09-07T07:49:34.666Z,58.90
2017-09-07T07:52:02.783Z,58.80
2017-09-07T07:54:30.409Z,58.70
2017-09-07T07:56:57.947Z,58.70
2017-09-07T07:59:25.514Z,58.60
2017-09-07T08:01:53.060Z,58.60
2017-09-07T08:04:20.639Z,58.70
2017-09-07T08:06:48.160Z,58.70
2017-09-07T08:09:15.731Z,58.60
2017-09-07T08:11:43.268Z,58.50
2017-09-07T08:14:10.819Z,57.70
2017-09-07T08:16:38.543Z,57.30
2017-09-07T08:19:07.228Z,55.90
2017-09-07T08:21:34.776Z,55.80
2017-09-07T08:24:02.329Z,55.50
2017-09-07T08:26:30.005Z,55.40
2017-09-07T08:28:57.760Z,54.80
2017-09-07T08:31:25.274Z,55.00
2017-09-07T08:33:52.840Z,54.90
2017-09-07T08:36:20.347Z,54.50
2017-09-07T08:38:47.887Z,54.90
2017-09-07T08:41:15.381Z,54.90
2017-09-07T08:43:42.899Z,54.80
2017-09-07T08:46:10.405Z,54.60
2017-09-07T08:48:38.116Z,54.40
2017-09-07T08:51:05.795Z,54.20
2017-09-07T08:53:33.711Z,54.10
2017-09-07T08:56:01.328Z,54.10
2017-09-07T08:58:29.116Z,54.60
2017-09-07T09:00:56.774Z,54.30
2017-09-07T09:03:24.297Z,54.50
2017-09-07T09:05:51.854Z,53.90
2017-09-07T09:08:20.118Z,53.60
2017-09-07T09:10:47.620Z,54.20
2017-09-07T09:13:15.353Z,54.00
2017-09-07T09:15:42.881Z,53.40
2017-09-07T09:18:10.564Z,53.20
2017-09-07T09:20:38.136Z,53.60
2017-09-07T09:23:05.641Z,52.90
2017-09-07T09:25:33.151Z,52.90
2017-09-07T09:28:00.697Z,53.20
2017-09-07T09:30:28.219Z,53.00
2017-09-07T09:32:55.943Z,53.20
2017-09-07T09:35:23.463Z,52.80
2017-09-07T09:37:51.019Z,52.70
2017-09-07T09:40:18.532Z,52.30
2017-09-07T09:42:46.037Z,52.50
2017-09-07T09:47:47.611Z,52.70
2017-09-07T09:50:15.144Z,52.90
2017-09-07T09:52:43.418Z,52.40
2017-09-07T09:55:10.951Z,53.00
2017-09-07T09:57:38.466Z,52.70
2017-09-07T10:00:05.972Z,52.80
2017-09-07T10:02:33.529Z,52.90
2017-09-07T10:05:01.040Z,52.80
2017-09-07T10:07:28.549Z,52.50
2017-09-07T10:09:56.115Z,52.50
2017-09-07T10:12:23.608Z,52.50
2017-09-07T10:14:51.125Z,52.40
2017-09-07T10:17:19.063Z,52.40
2017-09-07T10:19:46.637Z,52.10
2017-09-07T10:22:14.138Z,52.60
2017-09-07T10:24:41.639Z,52.40
2017-09-07T10:27:09.186Z,52.20
2017-09-07T10:29:36.719Z,52.00
2017-09-07T10:32:04.238Z,51.90
2017-09-07T10:34:31.994Z,51.60
2017-09-07T10:36:59.515Z,51.90
2017-09-07T10:39:27.049Z,51.00
2017-09-07T10:41:54.557Z,50.80
2017-09-07T10:44:22.060Z,51.00
2017-09-07T10:46:49.583Z,51.80
2017-09-07T10:49:17.092Z,51.70
2017-09-07T10:51:44.633Z,51.40
2017-09-07T10:54:12.138Z,51.50
2017-09-07T10:56:39.727Z,50.80
2017-09-07T10:59:07.268Z,50.20
2017-09-07T11:01:35.116Z,49.70
2017-09-07T11:04:02.613Z,49.50
2017-09-07T11:06:30.138Z,49.90
2017-09-07T11:08:57.679Z,50.40
2017-09-07T11:11:25.251Z,49.70
2017-09-07T11:13:53.041Z,49.70
2017-09-07T11:16:20.578Z,49.60
2017-09-07T11:18:48.222Z,49.50
2017-09-07T11:21:15.719Z,49.50
2017-09-07T11:23:43.446Z,49.20
2017-09-07T11:26:10.953Z,49.20
2017-09-07T11:28:38.528Z,49.20
2017-09-07T11:31:06.068Z,49.00
2017-09-07T11:33:34.613Z,48.30
2017-09-07T11:36:02.863Z,48.90
2017-09-07T11:38:30.397Z,48.90
2017-09-07T11:40:57.951Z,48.90
2017-09-07T11:43:25.504Z,48.90
2017-09-07T11:45:53.226Z,49.10
2017-09-07T11:48:20.735Z,49.10
2017-09-07T11:50:48.520Z,49.30
2017-09-07T11:53:16.310Z,49.40
2017-09-07T11:55:43.811Z,49.70
2017-09-07T11:58:11.346Z,49.80
2017-09-07T12:00:38.841Z,49.90
2017-09-07T12:03:06.332Z,50.00
2017-09-07T12:05:34.983Z,50.10
2017-09-07T12:08:02.485Z,50.30
2017-09-07T12:10:30.201Z,50.70
2017-09-07T12:12:57.716Z,50.70
2017-09-07T12:15:25.276Z,51.00
2017-09-07T12:17:52.788Z,51.00
2017-09-07T12:20:20.334Z,50.90
2017-09-07T12:22:47.884Z,50.80
2017-09-07T12:25:15.400Z,51.00
2017-09-07T12:27:43.185Z,50.60
2017-09-07T12:30:10.742Z,50.40
2017-09-07T12:32:38.246Z,49.80
2017-09-07T12:35:05.791Z,49.60
2017-09-07T12:37:33.294Z,48.90
2017-09-07T12:40:00.810Z,48.70
2017-09-07T12:42:28.618Z,48.50
2017-09-07T12:44:56.122Z,48.80
2017-09-07T12:47:23.649Z,48.30
2017-09-07T12:49:51.143Z,48.80
2017-09-07T12:52:18.674Z,48.90
2017-09-07T12:54:46.566Z,49.10
2017-09-07T12:57:14.071Z,49.10
2017-09-07T12:59:41.728Z,49.40
2017-09-07T13:02:09.285Z,49.70
2017-09-07T13:04:36.784Z,49.90
2017-09-07T13:07:04.321Z,50.20
2017-09-07T13:09:31.828Z,50.30
2017-09-07T13:11:59.327Z,50.70
2017-09-07T13:14:26.877Z,50.90
2017-09-07T13:16:54.372Z,51.00
2017-09-07T13:19:21.860Z,51.10
2017-09-07T13:21:49.394Z,51.30
2017-09-07T13:24:16.901Z,51.40
2017-09-07T13:26:44.422Z,51.50
2017-09-07T13:29:11.909Z,51.70
2017-09-07T13:31:39.419Z,51.80
2017-09-07T13:34:06.947Z,52.00
2017-09-07T13:36:34.465Z,52.10
2017-09-07T13:39:01.999Z,52.20
2017-09-07T13:41:29.504Z,52.30
2017-09-07T13:43:57.041Z,52.30
2017-09-07T13:46:24.546Z,52.40
2017-09-07T13:48:52.353Z,52.50
2017-09-07T13:51:19.888Z,52.60
2017-09-07T13:53:47.420Z,52.60
2017-09-07T13:56:14.968Z,52.70
2017-09-07T13:58:42.456Z,52.90
2017-09-07T14:01:10.758Z,53.10
2017-09-07T14:03:38.308Z,52.90
2017-09-07T14:06:05.821Z,53.00
2017-09-07T14:08:33.324Z,53.10
2017-09-07T14:11:00.850Z,53.10
2017-09-07T14:13:28.389Z,53.20
2017-09-07T14:15:55.892Z,53.20
2017-09-07T14:18:23.428Z,53.20
2017-09-07T14:20:51.087Z,53.30
2017-09-07T14:23:18.584Z,53.30
2017-09-07T14:25:46.247Z,53.40
2017-09-07T14:28:13.749Z,53.40
2017-09-07T14:30:41.284Z,53.50
2017-09-07T14:33:08.801Z,53.50
2017-09-07T14:35:36.525Z,53.50
2017-09-07T14:38:04.026Z,53.60
2017-09-07T14:41:01.784Z,53.50
2017-09-07T14:43:30.061Z,53.80
2017-09-07T14:45:57.572Z,53.70
2017-09-07T14:48:25.306Z,53.70
2017-09-07T14:50:52.809Z,53.70
2017-09-07T14:53:20.303Z,53.70
2017-09-07T14:55:47.839Z,53.80
2017-09-07T14:58:15.341Z,53.90
2017-09-07T15:00:42.830Z,53.80
2017-09-07T15:03:10.355Z,53.80
2017-09-07T15:05:37.845Z,53.80
2017-09-07T15:08:05.580Z,53.80
2017-09-07T15:10:33.148Z,53.80
2017-09-07T15:13:00.641Z,53.90
2017-09-07T15:15:28.676Z,53.90
2017-09-07T15:17:56.178Z,54.00
2017-09-07T15:20:23.719Z,54.00
2017-09-07T15:22:51.273Z,54.00
2017-09-07T15:25:18.762Z,54.10
2017-09-07T15:27:46.267Z,54.10
2017-09-07T15:30:13.891Z,54.10
2017-09-07T15:32:41.403Z,54.10
2017-09-07T15:35:08.946Z,54.30
2017-09-07T15:37:36.712Z,53.80
2017-09-07T15:40:04.200Z,52.70
2017-09-07T15:42:31.737Z,52.90
2017-09-07T15:44:59.244Z,51.70
2017-09-07T15:47:26.782Z,50.80
2017-09-07T15:49:54.562Z,50.70
2017-09-07T15:52:22.373Z,50.30
2017-09-07T15:54:49.875Z,49.50
2017-09-07T15:57:17.407Z,50.20
2017-09-07T15:59:44.912Z,49.60
2017-09-07T16:02:12.456Z,49.60
2017-09-07T16:04:40.009Z,49.50
2017-09-07T16:07:07.521Z,49.20
2017-09-07T16:09:35.182Z,48.50
2017-09-07T16:12:02.705Z,48.00
2017-09-07T16:14:30.245Z,47.90
2017-09-07T16:16:57.743Z,47.60
2017-09-07T16:19:25.246Z,47.10
2017-09-07T16:21:52.804Z,46.50
2017-09-07T16:24:20.300Z,46.40
2017-09-07T16:26:47.841Z,46.40
2017-09-07T16:29:15.368Z,45.70
2017-09-07T16:31:42.861Z,45.20
2017-09-07T16:34:10.375Z,44.90
2017-09-07T16:36:37.888Z,45.20
2017-09-07T16:39:05.437Z,45.60
2017-09-07T16:41:32.949Z,45.40
2017-09-07T16:44:00.496Z,45.40
2017-09-07T16:46:28.012Z,45.40
2017-09-07T16:48:55.508Z,45.50
2017-09-07T16:51:23.044Z,46.20
2017-09-07T16:53:50.549Z,45.90
2017-09-07T16:56:18.061Z,45.80
2017-09-07T16:58:45.864Z,45.80
2017-09-07T17:01:13.627Z,46.00
2017-09-07T17:03:41.126Z,46.10
2017-09-07T17:06:08.620Z,46.00
2017-09-07T17:08:36.156Z,46.10
2017-09-07T17:11:03.764Z,46.30
2017-09-07T17:13:31.537Z,46.40
2017-09-07T17:15:59.100Z,46.40
2017-09-07T17:18:26.604Z,46.40
2017-09-07T17:20:54.204Z,46.70
2017-09-07T17:23:21.970Z,46.70
2017-09-07T17:25:49.518Z,46.90
2017-09-07T17:28:17.034Z,47.00
2017-09-07T17:30:44.645Z,47.10
2017-09-07T17:33:12.780Z,47.60
2017-09-07T17:35:40.336Z,47.90
2017-09-07T17:38:07.870Z,48.40
2017-09-07T17:40:35.393Z,48.50
2017-09-07T17:43:02.932Z,48.70
2017-09-07T17:45:30.424Z,48.90
2017-09-07T17:47:57.969Z,48.90
2017-09-07T17:50:25.492Z,48.90
2017-09-07T17:52:53.294Z,48.90
2017-09-07T17:55:21.234Z,48.80
2017-09-07T17:57:48.739Z,48.90
2017-09-07T18:00:16.279Z,48.90
2017-09-07T18:02:43.860Z,48.80
2017-09-07T18:05:11.501Z,48.80
2017-09-07T18:07:39.050Z,48.70
2017-09-07T18:10:07.512Z,47.80
2017-09-07T18:12:35.055Z,48.40
2017-09-07T18:15:02.592Z,48.20
2017-09-07T18:17:30.084Z,48.20
2017-09-07T18:19:57.617Z,49.10
2017-09-07T18:22:25.148Z,48.30
2017-09-07T18:24:52.640Z,48.60
2017-09-07T18:27:20.158Z,48.90
2017-09-07T18:29:47.718Z,49.00
2017-09-07T18:32:15.371Z,49.10
2017-09-07T18:34:42.988Z,49.30
2017-09-07T18:37:10.532Z,49.30
2017-09-07T18:39:38.039Z,49.50
2017-09-07T18:42:05.544Z,49.60
2017-09-07T18:44:33.066Z,49.80
2017-09-07T18:47:00.574Z,49.90
2017-09-07T18:49:28.131Z,50.00
2017-09-07T18:51:55.628Z,50.10
2017-09-07T18:54:23.127Z,50.10
2017-09-07T18:56:50.657Z,50.20
2017-09-07T18:59:18.173Z,50.20
2017-09-07T19:01:45.985Z,50.20
2017-09-07T19:04:13.493Z,50.30
2017-09-07T19:06:41.032Z,50.40
2017-09-07T19:09:08.539Z,50.50
2017-09-07T19:11:36.037Z,51.20
2017-09-07T19:14:03.597Z,50.50
2017-09-07T19:16:31.113Z,50.60
2017-09-07T19:18:58.634Z,51.00
2017-09-07T19:21:26.353Z,51.10
2017-09-07T19:23:53.899Z,51.20
2017-09-07T19:26:21.579Z,51.20
2017-09-07T19:28:49.062Z,51.20
2017-09-07T19:31:16.713Z,51.10
2017-09-07T19:33:44.212Z,51.20
2017-09-07T19:36:12.636Z,51.30
2017-09-07T19:38:40.145Z,51.30
2017-09-07T19:41:07.684Z,51.30
2017-09-07T19:43:35.205Z,51.40
2017-09-07T19:46:02.770Z,51.40
2017-09-07T19:48:30.305Z,51.50
2017-09-07T19:50:57.820Z,51.50
2017-09-07T19:53:25.308Z,51.60
2017-09-07T19:55:52.806Z,51.60
2017-09-07T19:58:20.341Z,51.60
2017-09-07T20:00:47.829Z,51.60
2017-09-07T20:03:15.580Z,51.70
2017-09-07T20:05:43.072Z,51.70
2017-09-07T20:08:10.569Z,51.70
2017-09-07T20:10:38.104Z,51.80
2017-09-07T20:13:05.717Z,51.80
2017-09-07T20:15:33.216Z,52.40
2017-09-07T20:18:00.732Z,52.20
2017-09-07T20:20:28.225Z,52.20
2017-09-07T20:22:55.765Z,52.00
2017-09-07T20:25:23.253Z,52.10
2017-09-07T20:27:50.776Z,52.00
2017-09-07T20:30:18.266Z,51.80
2017-09-07T20:32:45.768Z,51.90
2017-09-07T20:35:13.287Z,52.00
2017-09-07T20:37:40.797Z,52.10
2017-09-07T20:40:08.364Z,52.20
2017-09-07T20:42:35.884Z,52.10
2017-09-07T20:45:03.385Z,52.00
2017-09-07T20:47:30.933Z,52.00
2017-09-07T20:49:58.494Z,51.90
2017-09-07T20:52:26.014Z,51.90
2017-09-07T20:54:53.539Z,51.80
2017-09-07T20:57:21.073Z,52.00
2017-09-07T20:59:48.575Z,52.20
2017-09-07T21:02:16.114Z,52.20
2017-09-07T21:04:43.746Z,52.10
2017-09-07T21:07:11.241Z,52.00
2017-09-07T21:09:38.779Z,52.00
2017-09-07T21:12:06.271Z,51.90
2017-09-07T21:14:33.776Z,51.90
2017-09-07T21:17:01.349Z,52.10
2017-09-07T21:19:28.848Z,52.00
2017-09-07T21:21:56.339Z,52.00
2017-09-07T21:24:23.854Z,52.10
2017-09-07T21:26:51.372Z,52.10
2017-09-07T21:29:18.869Z,52.00
2017-09-07T21:31:46.423Z,51.90
2017-09-07T21:34:13.925Z,51.80
2017-09-07T21:36:41.439Z,51.90
2017-09-07T21:39:08.968Z,51.90
2017-09-07T21:41:36.456Z,51.90
2017-09-07T21:44:03.978Z,51.80
2017-09-07T21:46:31.472Z,51.90
2017-09-07T21:48:59.000Z,51.90
2017-09-07T21:51:26.492Z,51.90
2017-09-07T21:53:54.020Z,51.80
2017-09-07T21:56:21.560Z,51.90
2017-09-07T21:58:49.165Z,51.90
2017-09-07T22:01:16.791Z,51.90
2017-09-07T22:03:44.290Z,51.90
2017-09-07T22:06:11.832Z,51.90
2017-09-07T22:08:39.356Z,51.90
2017-09-07T22:11:06.906Z,51.80
2017-09-07T22:13:34.695Z,51.90
2017-09-07T22:16:02.454Z,51.70
2017-09-07T22:18:30.090Z,51.80
2017-09-07T22:20:57.602Z,51.80
2017-09-07T22:23:25.132Z,51.80
2017-09-07T22:25:52.668Z,51.70
2017-09-07T22:28:20.165Z,51.70
2017-09-07T22:30:47.672Z,51.70
2017-09-07T22:33:15.197Z,51.60
2017-09-07T22:35:42.865Z,51.70
2017-09-07T22:38:10.356Z,51.60
2017-09-07T22:40:37.881Z,51.60
2017-09-07T22:43:05.381Z,51.60
2017-09-07T22:45:32.896Z,51.50
2017-09-07T22:48:00.388Z,51.60
2017-09-07T22:50:27.881Z,51.40
2017-09-07T22:52:55.417Z,51.40
2017-09-07T22:55:22.905Z,51.40
2017-09-07T22:57:50.452Z,51.40
2017-09-07T23:00:18.029Z,51.40
2017-09-07T23:02:45.527Z,51.40
2017-09-07T23:05:13.139Z,51.40
2017-09-07T23:07:40.637Z,51.30
2017-09-07T23:10:08.173Z,51.40
2017-09-07T23:12:35.684Z,51.50
2017-09-07T23:15:03.206Z,51.40
2017-09-07T23:17:30.699Z,51.30
2017-09-07T23:19:58.237Z,51.40
2017-09-07T23:22:25.735Z,51.40
2017-09-07T23:24:53.252Z,51.40
2017-09-07T23:27:20.856Z,51.30
2017-09-07T23:29:48.377Z,51.40
2017-09-07T23:32:15.905Z,51.30
2017-09-07T23:34:43.430Z,51.40
2017-09-07T23:37:10.929Z,51.30
2017-09-07T23:39:38.473Z,51.30
2017-09-07T23:42:05.968Z,51.30
2017-09-07T23:44:33.496Z,51.30
2017-09-07T23:47:00.988Z,51.30
2017-09-07T23:49:28.527Z,51.30
2017-09-07T23:51:56.016Z,51.20
2017-09-07T23:54:23.806Z,51.20
2017-09-07T23:56:51.324Z,51.20
2017-09-07T23:59:18.821Z,51.20
